Time;durP1;ratioP1;P1;durP2;ratioP2;P2;SDS_P1;SDS_P2;PMS_P1;PMS_P2;Temp;Humidity;BMP_temperature;BMP_pressure;BME280_temperature;BME280_humidity;BME280_pressure;Samples;Min_cycle;Max_cycle;Signal;HPM_P1;HPM_P2
2022/07/20 00:00:49;;;;;;;4.50;3.58;;;;;;;14.27;nan;99090.00;5042104;28;20051;-63
2022/07/20 00:03:14;;;;;;;5.40;3.33;;;;;;;14.26;nan;99082.13;5041912;28;20398;-61
2022/07/20 00:05:41;;;;;;;7.68;2.90;;;;;;;14.25;nan;99080.41;5062768;28;20048;-62
2022/07/20 00:08:06;;;;;;;3.95;3.28;;;;;;;14.22;nan;99084.22;5045645;28;20048;-62
2022/07/20 00:13:15;;;;;;;5.93;3.05;;;;;;;14.21;nan;99074.53;5060391;28;20050;-62
2022/07/20 00:15:41;;;;;;;3.13;2.80;;;;;;;14.16;nan;99066.91;5041501;28;20516;-62
2022/07/20 00:18:06;;;;;;;5.10;3.28;;;;;;;14.13;nan;99069.88;5023729;28;20044;-62
2022/07/20 00:20:31;;;;;;;4.65;3.00;;;;;;;14.11;nan;99073.69;5058823;28;20079;-64
2022/07/20 00:22:56;;;;;;;5.65;2.70;;;;;;;14.07;nan;99067.78;5045308;28;20055;-64
2022/07/20 00:25:21;;;;;;;5.55;2.90;;;;;;;14.05;nan;99061.72;5078533;28;20414;-65
2022/07/20 00:27:46;;;;;;;4.05;3.08;;;;;;;14.04;nan;99065.41;5079192;28;20511;-64
2022/07/20 00:30:11;;;;;;;5.25;3.00;;;;;;;14.02;nan;99058.47;5078931;28;20051;-64
2022/07/20 00:32:37;;;;;;;4.82;3.00;;;;;;;13.99;nan;99056.97;5078399;28;20047;-64
2022/07/20 00:35:04;;;;;;;4.35;3.15;;;;;;;13.98;nan;99063.31;5060030;28;20074;-64
2022/07/20 00:37:29;;;;;;;3.95;2.97;;;;;;;13.94;nan;99051.19;5078203;28;20044;-64
2022/07/20 00:39:54;;;;;;;5.40;3.15;;;;;;;13.92;nan;99047.78;5078432;28;20449;-64
2022/07/20 00:42:18;;;;;;;5.63;3.00;;;;;;;13.91;nan;99051.47;5059596;28;20043;-64
2022/07/20 00:44:43;;;;;;;3.88;2.83;;;;;;;13.90;nan;99039.06;5059839;28;20498;-66
2022/07/20 00:47:08;;;;;;;6.47;3.50;;;;;;;13.87;nan;99047.41;5078105;28;20126;-64
2022/07/20 00:49:33;;;;;;;5.32;2.80;;;;;;;13.86;nan;99037.66;5077877;28;20498;-63
2022/07/20 00:51:57;;;;;;;5.80;3.05;;;;;;;13.82;nan;99036.25;5077944;28;20048;-64
2022/07/20 00:54:23;;;;;;;4.63;3.20;;;;;;;13.82;nan;99030.91;5077694;28;20036;-64
2022/07/20 00:56:48;;;;;;;3.33;2.70;;;;;;;13.80;nan;99023.00;5077621;28;20047;-63
2022/07/20 00:59:13;;;;;;;4.03;2.80;;;;;;;13.78;nan;99029.50;5077662;28;20516;-65
2022/07/20 01:01:39;;;;;;;5.50;3.28;;;;;;;13.75;nan;99022.63;5077800;28;20043;-63
2022/07/20 01:04:04;;;;;;;7.65;3.15;;;;;;;13.75;nan;99017.25;5076333;28;20914;-66
2022/07/20 01:06:29;;;;;;;3.33;2.97;;;;;;;13.75;nan;99019.94;5059166;28;20501;-64
2022/07/20 01:08:54;;;;;;;6.57;3.33;;;;;;;13.76;nan;99015.41;5077408;28;20084;-64
2022/07/20 01:11:19;;;;;;;4.97;3.40;;;;;;;13.75;nan;99011.06;5077502;28;20047;-64
2022/07/20 01:13:44;;;;;;;4.88;3.00;;;;;;;13.77;nan;99009.03;5059134;28;20043;-67
2022/07/20 01:16:09;;;;;;;4.47;2.92;;;;;;;13.76;nan;98999.34;5077179;28;20066;-63
2022/07/20 01:18:34;;;;;;;4.05;3.20;;;;;;;13.76;nan;98999.34;5058931;28;20074;-71
2022/07/20 01:21:03;;;;;;;7.38;2.97;;;;;;;13.74;nan;99009.34;5059050;28;20147;-70
2022/07/20 01:23:29;;;;;;;4.10;3.20;;;;;;;13.72;nan;99006.81;5058948;28;20067;-63
2022/07/20 01:25:54;;;;;;;5.50;2.83;;;;;;;13.71;nan;99004.28;5058874;28;20044;-63
2022/07/20 01:28:18;;;;;;;4.53;2.60;;;;;;;13.69;nan;98999.06;5059437;28;20043;-64
2022/07/20 01:30:43;;;;;;;4.07;2.35;;;;;;;13.67;nan;98997.50;5058932;28;20135;-62
2022/07/20 01:33:09;;;;;;;5.55;3.97;;;;;;;13.66;nan;98999.34;5025253;28;20081;-63
2022/07/20 01:35:33;;;;;;;7.40;3.30;;;;;;;13.65;nan;98994.16;5065201;28;20463;-64
2022/07/20 01:37:58;;;;;;;4.50;3.53;;;;;;;13.65;nan;98996.84;5036404;28;20117;-63
2022/07/20 01:40:23;;;;;;;3.90;2.95;;;;;;;13.61;nan;99000.78;5018364;28;20113;-63
2022/07/20 01:42:48;;;;;;;7.18;3.60;;;;;;;13.59;nan;98992.03;5035914;28;20124;-64
2022/07/20 01:45:13;;;;;;;5.55;3.33;;;;;;;13.58;nan;98993.03;5018490;28;20135;-67
2022/07/20 01:47:38;;;;;;;7.68;3.42;;;;;;;13.58;nan;98985.00;5036383;28;20079;-65
2022/07/20 01:50:04;;;;;;;7.07;3.33;;;;;;;13.61;nan;98995.44;5035999;28;20522;-68
2022/07/20 01:52:29;;;;;;;4.15;3.35;;;;;;;13.65;nan;98986.13;5035986;28;20452;-64
2022/07/20 01:54:53;;;;;;;6.50;3.72;;;;;;;13.73;nan;98979.03;5018165;28;20472;-65
2022/07/20 01:57:18;;;;;;;4.35;3.50;;;;;;;13.85;nan;98968.16;5036059;28;20048;-67
2022/07/20 01:59:43;;;;;;;6.90;3.47;;;;;;;13.98;nan;98960.63;5047384;28;20024;-64
2022/07/20 02:02:08;;;;;;;4.97;3.17;;;;;;;14.09;nan;98955.91;5059069;28;20047;-64
2022/07/20 02:04:33;;;;;;;5.55;3.28;;;;;;;14.18;nan;98949.66;5077113;28;20044;-64
2022/07/20 02:06:58;;;;;;;5.72;3.65;;;;;;;14.28;nan;98951.44;5058268;28;20099;-65
2022/07/20 02:09:22;;;;;;;5.45;3.17;;;;;;;14.36;nan;98951.53;5057966;28;20410;-65
2022/07/20 02:11:47;;;;;;;9.85;3.35;;;;;;;14.47;nan;98940.63;5057817;28;20047;-64
2022/07/20 02:14:12;;;;;;;5.63;2.95;;;;;;;14.59;nan;98944.78;5075526;28;20078;-67
2022/07/20 02:16:37;;;;;;;4.25;3.05;;;;;;;14.73;nan;98949.63;5075835;28;20104;-66
2022/07/20 02:19:01;;;;;;;3.63;2.85;;;;;;;14.86;nan;98947.41;5076167;28;20417;-65
2022/07/20 02:21:29;;;;;;;13.30;3.13;;;;;;;14.98;nan;98941.78;5075995;28;20063;-67
2022/07/20 02:23:54;;;;;;;4.40;2.67;;;;;;;14.99;nan;98938.13;5074913;28;20043;-70
2022/07/20 02:26:19;;;;;;;4.35;2.92;;;;;;;15.13;nan;98941.06;5056863;28;20039;-70
2022/07/20 02:28:44;;;;;;;3.85;2.53;;;;;;;15.27;nan;98932.47;5040032;28;20059;-69
2022/07/20 02:31:09;;;;;;;6.78;2.92;;;;;;;15.42;nan;98926.53;5075272;28;20128;-69
2022/07/20 02:33:33;;;;;;;3.92;2.55;;;;;;;15.50;nan;98927.41;5075956;28;20581;-69
2022/07/20 02:35:58;;;;;;;5.25;2.67;;;;;;;15.59;nan;98906.84;5076161;28;20045;-67
2022/07/20 02:38:23;;;;;;;6.38;2.78;;;;;;;15.57;nan;98912.41;5076016;28;20035;-69
2022/07/20 02:40:49;;;;;;;3.47;2.58;;;;;;;15.53;nan;98908.31;5076066;28;20032;-73
2022/07/20 02:43:13;;;;;;;4.50;3.00;;;;;;;15.45;nan;98908.25;5040385;28;20046;-68
2022/07/20 02:45:38;;;;;;;7.40;2.63;;;;;;;15.42;nan;98905.03;5075574;28;20032;-61
2022/07/20 02:48:03;;;;;;;5.13;3.25;;;;;;;15.44;nan;98903.03;5075536;28;20045;-62
2022/07/20 02:50:33;;;;;;;3.40;2.83;;;;;;;15.39;nan;98899.97;5075618;28;20059;-61
2022/07/20 02:53:00;;;;;;;5.25;2.58;;;;;;;15.36;nan;98892.22;5040331;28;20036;-63
2022/07/20 02:55:25;;;;;;;10.30;3.20;;;;;;;15.48;nan;98893.66;5057208;28;20554;-61
2022/07/20 02:57:49;;;;;;;4.47;3.20;;;;;;;15.62;nan;98885.03;5057357;28;20459;-64
2022/07/20 03:00:15;;;;;;;6.95;3.10;;;;;;;15.63;nan;98881.34;5075539;28;20485;-62
2022/07/20 03:02:40;;;;;;;3.38;2.33;;;;;;;15.65;nan;98878.50;5040240;28;20067;-62
2022/07/20 03:05:05;;;;;;;3.75;2.33;;;;;;;15.63;nan;98878.66;5057233;28;20447;-61
2022/07/20 03:07:30;;;;;;;6.25;2.92;;;;;;;15.60;nan;98871.75;5075231;28;20042;-60
2022/07/20 03:09:55;;;;;;;4.43;2.78;;;;;;;15.60;nan;98863.69;5075311;28;20039;-60
2022/07/20 03:12:19;;;;;;;5.50;3.05;;;;;;;15.58;nan;98860.31;5056917;28;20497;-60
2022/07/20 03:14:44;;;;;;;4.30;3.40;;;;;;;15.53;nan;98867.16;5075095;28;20073;-61
2022/07/20 03:17:09;;;;;;;6.35;2.90;;;;;;;15.59;nan;98858.47;5075218;28;20036;-62
2022/07/20 03:19:34;;;;;;;4.45;2.83;;;;;;;15.62;nan;98866.22;5057889;28;20055;-61
2022/07/20 03:21:58;;;;;;;5.03;2.33;;;;;;;15.70;nan;98860.88;5057309;28;20047;-61
2022/07/20 03:24:23;;;;;;;4.05;2.83;;;;;;;15.74;nan;98874.84;5075195;28;20039;-60
2022/07/20 03:26:48;;;;;;;3.92;2.53;;;;;;;15.82;nan;98870.34;5074131;28;20038;-63
2022/07/20 03:29:13;;;;;;;5.80;3.45;;;;;;;15.89;nan;98870.56;5074955;28;20990;-61
2022/07/20 03:31:37;;;;;;;4.13;3.33;;;;;;;15.99;nan;98873.97;5075462;28;20040;-61
2022/07/20 03:34:02;;;;;;;3.17;2.67;;;;;;;16.08;nan;98867.59;5040055;28;20134;-62
2022/07/20 03:36:27;;;;;;;3.13;2.75;;;;;;;16.15;nan;98860.53;5074965;28;20510;-60
2022/07/20 03:38:52;;;;;;;3.67;2.88;;;;;;;16.17;nan;98861.22;5074866;28;20039;-62
2022/07/20 03:41:16;;;;;;;4.32;2.28;;;;;;;16.14;nan;98856.16;5074858;28;20134;-61
2022/07/20 03:43:41;;;;;;;6.70;3.08;;;;;;;16.11;nan;98859.22;5074932;28;20039;-60
2022/07/20 03:46:06;;;;;;;9.52;3.15;;;;;;;16.08;nan;98854.16;5057637;28;20554;-62
2022/07/20 03:48:30;;;;;;;5.20;3.03;;;;;;;16.03;nan;98851.09;5057042;28;20129;-62
2022/07/20 03:50:55;;;;;;;6.18;2.60;;;;;;;15.97;nan;98859.84;5075389;28;20042;-61
2022/07/20 03:53:20;;;;;;;6.15;3.15;;;;;;;15.91;nan;98852.44;5057590;28;20035;-61
2022/07/20 03:55:45;;;;;;;12.45;2.92;;;;;;;15.84;nan;98849.53;5075415;28;20121;-62
2022/07/20 03:58:09;;;;;;;4.78;3.05;;;;;;;15.80;nan;98844.66;5057077;28;20099;-61
2022/07/20 04:00:34;;;;;;;4.35;2.83;;;;;;;15.80;nan;98847.34;5056988;28;20046;-62
2022/07/20 04:02:59;;;;;;;4.05;3.08;;;;;;;15.76;nan;98841.44;5040185;28;20101;-69
2022/07/20 04:05:24;;;;;;;8.48;3.28;;;;;;;15.71;nan;98840.22;5056373;28;20083;-69
2022/07/20 04:07:49;;;;;;;2.67;2.40;;;;;;;15.60;nan;98834.16;5057044;28;20531;-67
2022/07/20 04:10:14;;;;;;;8.27;3.22;;;;;;;15.46;nan;98832.03;5056396;28;20072;-67
2022/07/20 04:12:39;;;;;;;6.15;3.25;;;;;;;15.32;nan;98823.75;5056233;28;20043;-68
2022/07/20 04:15:03;;;;;;;6.97;4.13;;;;;;;15.24;nan;98827.19;5039813;28;20383;-69
2022/07/20 04:17:28;;;;;;;5.00;2.95;;;;;;;15.16;nan;98825.31;5039959;28;20501;-70
2022/07/20 04:19:53;;;;;;;9.15;3.42;;;;;;;15.10;nan;98822.44;5039978;28;20528;-71
2022/07/20 04:22:18;;;;;;;5.80;3.03;;;;;;;15.08;nan;98824.44;5075034;28;20040;-70
2022/07/20 04:24:43;;;;;;;5.50;3.22;;;;;;;15.07;nan;98820.06;5074936;28;20054;-70
2022/07/20 04:27:08;;;;;;;6.38;3.00;;;;;;;15.06;nan;98819.22;5075155;28;20387;-70
2022/07/20 04:29:33;;;;;;;3.75;3.05;;;;;;;15.03;nan;98816.84;5042110;28;20498;-70
2022/07/20 04:31:58;;;;;;;3.28;2.85;;;;;;;15.03;nan;98810.63;5045281;28;20035;-70
2022/07/20 04:34:23;;;;;;;7.28;3.22;;;;;;;15.07;nan;98809.31;5084029;28;20064;-70
2022/07/20 04:36:48;;;;;;;11.05;3.80;;;;;;;15.08;nan;98801.13;5063828;28;20084;-71
2022/07/20 04:39:13;;;;;;;4.00;3.13;;;;;;;15.08;nan;98794.91;5068427;28;20039;-71
2022/07/20 04:41:38;;;;;;;2.63;2.42;;;;;;;15.13;nan;98792.56;5067442;28;20035;-70
2022/07/20 04:44:03;;;;;;;5.20;2.92;;;;;;;15.20;nan;98793.63;5048528;28;20384;-73
2022/07/20 04:46:28;;;;;;;7.15;3.45;;;;;;;15.24;nan;98779.72;5044484;28;20058;-72
2022/07/20 04:48:53;;;;;;;9.13;3.25;;;;;;;15.34;nan;98766.19;5078710;28;20047;-71
2022/07/20 04:51:18;;;;;;;2.75;2.47;;;;;;;15.36;nan;98766.84;5043255;28;20035;-70
2022/07/20 04:53:43;;;;;;;10.40;3.70;;;;;;;15.07;nan;98772.59;5060311;28;20075;-69
2022/07/20 04:56:09;;;;;;;5.32;2.92;;;;;;;14.91;nan;98772.47;5083369;28;20092;-68
2022/07/20 04:58:34;;;;;;;6.07;3.08;;;;;;;14.75;nan;98767.88;5050250;28;20047;-69
2022/07/20 05:00:59;;;;;;;4.03;3.28;;;;;;;14.74;nan;98781.44;5084039;28;20032;-70
2022/07/20 05:03:23;;;;;;;5.35;3.47;;;;;;;14.61;nan;98784.50;5065026;28;20046;-69
2022/07/20 05:05:49;;;;;;;3.60;3.00;;;;;;;14.60;nan;98790.88;5078388;28;20066;-68
2022/07/20 05:08:14;;;;;;;5.60;3.55;;;;;;;14.60;nan;98784.66;5059331;28;20051;-62
2022/07/20 05:10:39;;;;;;;4.30;3.45;;;;;;;14.60;nan;98792.72;5059341;28;20044;-62
2022/07/20 05:13:03;;;;;;;8.65;3.72;;;;;;;14.63;nan;98795.94;5059284;28;20039;-62
2022/07/20 05:15:28;;;;;;;6.25;3.47;;;;;;;14.64;nan;98792.25;5077641;28;20035;-62
2022/07/20 05:17:53;;;;;;;12.75;3.95;;;;;;;14.59;nan;98794.56;5059587;28;20048;-62
2022/07/20 05:20:18;;;;;;;11.70;3.67;;;;;;;14.49;nan;98788.44;5059800;28;20039;-64
2022/07/20 05:22:43;;;;;;;5.00;3.55;;;;;;;14.37;nan;98798.53;5078667;28;20394;-62
2022/07/20 05:25:09;;;;;;;6.63;3.67;;;;;;;14.29;nan;98774.34;5078184;28;20050;-63
2022/07/20 05:27:35;;;;;;;4.75;3.65;;;;;;;14.22;nan;98773.25;5077539;28;20047;-63
2022/07/20 05:30:00;;;;;;;7.10;3.97;;;;;;;14.14;nan;98768.66;5077151;28;20543;-61
2022/07/20 05:32:25;;;;;;;7.03;3.78;;;;;;;14.11;nan;98763.59;5077394;28;20596;-63
2022/07/20 05:34:50;;;;;;;5.18;3.40;;;;;;;14.00;nan;98750.44;5077301;28;20045;-63
2022/07/20 05:37:15;;;;;;;5.35;3.72;;;;;;;13.95;nan;98746.53;5077093;28;20051;-62
2022/07/20 05:39:39;;;;;;;5.90;4.40;;;;;;;13.92;nan;98739.66;5077111;28;20106;-63
2022/07/20 05:42:04;;;;;;;7.85;4.25;;;;;;;13.84;nan;98736.06;5076760;28;20054;-63
2022/07/20 05:44:29;;;;;;;9.27;3.65;;;;;;;13.86;nan;98729.56;5076647;28;20391;-63
2022/07/20 05:46:54;;;;;;;4.38;3.85;;;;;;;13.85;nan;98732.38;5058536;28;20104;-63
2022/07/20 05:49:19;;;;;;;5.72;3.83;;;;;;;13.82;nan;98725.47;5057806;28;20047;-64
2022/07/20 05:51:44;;;;;;;4.68;3.60;;;;;;;13.89;nan;98715.81;5077048;28;20040;-64
2022/07/20 05:54:08;;;;;;;7.03;4.15;;;;;;;14.00;nan;98712.91;5076597;28;20040;-62
2022/07/20 05:56:33;;;;;;;8.88;4.30;;;;;;;14.15;nan;98705.19;5041294;28;20048;-64
2022/07/20 05:58:58;;;;;;;4.78;4.07;;;;;;;14.26;nan;98701.41;5076141;28;20118;-64
2022/07/20 06:01:23;;;;;;;5.15;4.00;;;;;;;14.34;nan;98693.41;5041325;28;20047;-64
2022/07/20 06:03:48;;;;;;;8.40;4.88;;;;;;;14.37;nan;98687.75;5076378;28;20040;-63
2022/07/20 06:06:13;;;;;;;4.78;3.70;;;;;;;14.36;nan;98680.69;5058060;28;20048;-63
2022/07/20 06:08:38;;;;;;;6.80;3.90;;;;;;;14.22;nan;98676.75;5058187;28;20039;-63
2022/07/20 06:11:03;;;;;;;4.28;3.28;;;;;;;14.21;nan;98666.19;5077128;28;20047;-63
2022/07/20 06:13:28;;;;;;;5.65;3.50;;;;;;;14.14;nan;98664.13;5077076;28;20472;-71
2022/07/20 06:15:53;;;;;;;9.82;4.88;;;;;;;14.20;nan;98665.34;5077523;28;20047;-72
2022/07/20 06:18:18;;;;;;;9.57;4.28;;;;;;;14.27;nan;98657.53;5078320;28;20055;-72
2022/07/20 06:20:42;;;;;;;8.95;5.70;;;;;;;14.35;nan;98655.72;5089893;28;20055;-72
2022/07/20 06:23:07;;;;;;;6.85;4.25;;;;;;;14.45;nan;98647.59;5085998;28;20044;-71
2022/07/20 06:25:32;;;;;;;3.92;3.08;;;;;;;14.56;nan;98651.88;5082956;28;20064;-72
2022/07/20 06:28:00;;;;;;;4.15;3.58;;;;;;;14.66;nan;98653.47;5088833;28;20043;-71
2022/07/20 06:30:25;;;;;;;5.15;3.03;;;;;;;14.83;nan;98647.16;5061600;28;20106;-72
2022/07/20 06:32:50;;;;;;;5.07;3.40;;;;;;;15.03;nan;98644.22;5076392;28;20168;-71
2022/07/20 06:35:16;;;;;;;5.65;2.90;;;;;;;15.14;nan;98651.97;5076392;28;20054;-71
2022/07/20 06:37:41;;;;;;;6.72;3.42;;;;;;;15.18;nan;98642.59;5076276;28;20063;-71
2022/07/20 06:40:06;;;;;;;4.65;3.33;;;;;;;15.26;nan;98648.81;5076258;28;20090;-72
2022/07/20 06:42:31;;;;;;;4.75;4.18;;;;;;;15.38;nan;98649.34;5076556;28;20040;-71
2022/07/20 06:44:56;;;;;;;6.13;3.75;;;;;;;15.48;nan;98647.38;5057683;28;20038;-64
2022/07/20 06:47:21;;;;;;;5.43;3.53;;;;;;;15.53;nan;98649.56;5075815;28;20047;-64
2022/07/20 06:49:46;;;;;;;17.75;8.73;;;;;;;15.54;nan;98644.06;5075447;28;20035;-63
2022/07/20 06:52:11;;;;;;;6.05;4.28;;;;;;;15.57;nan;98643.75;5075457;28;20047;-64
2022/07/20 06:54:35;;;;;;;4.30;3.42;;;;;;;15.63;nan;98641.38;5057286;28;20062;-64
2022/07/20 06:57:00;;;;;;;3.33;3.00;;;;;;;15.70;nan;98647.75;5057082;28;20509;-63
2022/07/20 06:59:25;;;;;;;6.10;4.28;;;;;;;15.79;nan;98641.41;5075420;28;20042;-63
2022/07/20 07:01:50;;;;;;;4.60;3.13;;;;;;;15.82;nan;98639.22;5075299;28;20051;-63
2022/07/20 07:04:15;;;;;;;6.25;4.78;;;;;;;15.83;nan;98630.16;5057006;28;20440;-70
2022/07/20 07:06:40;;;;;;;5.55;3.90;;;;;;;15.86;nan;98634.34;5075863;28;20569;-70
2022/07/20 07:09:05;;;;;;;7.50;4.45;;;;;;;15.81;nan;98628.63;5057531;28;20031;-71
2022/07/20 07:11:29;;;;;;;7.18;5.07;;;;;;;15.83;nan;98621.25;5075561;28;20048;-71
2022/07/20 07:13:54;;;;;;;6.35;4.10;;;;;;;15.80;nan;98618.91;5075687;28;20120;-71
2022/07/20 07:16:19;;;;;;;6.15;3.17;;;;;;;15.79;nan;98617.22;5057621;28;20046;-69
2022/07/20 07:18:44;;;;;;;4.47;2.83;;;;;;;15.78;nan;98610.16;5075458;28;20130;-70
2022/07/20 07:21:09;;;;;;;4.97;3.13;;;;;;;15.81;nan;98605.28;5075769;28;20060;-71
2022/07/20 07:23:33;;;;;;;8.40;3.78;;;;;;;15.83;nan;98607.81;5075835;28;20089;-71
2022/07/20 07:25:58;;;;;;;4.60;2.85;;;;;;;15.86;nan;98602.09;5075799;28;20115;-72
2022/07/20 07:28:23;;;;;;;12.85;4.57;;;;;;;16.06;nan;98602.59;5076554;28;20032;-71
2022/07/20 07:30:51;;;;;;;6.15;3.10;;;;;;;16.36;nan;98598.34;5075922;28;20112;-71
2022/07/20 07:33:17;;;;;;;7.15;2.58;;;;;;;16.79;nan;98589.00;5059851;28;20057;-70
2022/07/20 07:35:42;;;;;;;8.82;3.22;;;;;;;17.13;nan;98592.19;5077977;28;20089;-70
2022/07/20 07:38:07;;;;;;;3.75;2.20;;;;;;;17.28;nan;98579.63;5076405;28;20035;-70
2022/07/20 07:40:32;;;;;;;4.53;1.95;;;;;;;17.38;nan;98572.16;5057782;28;20084;-70
2022/07/20 07:42:57;;;;;;;2.75;2.28;;;;;;;17.60;nan;98565.13;5075043;28;20062;-70
2022/07/20 07:45:22;;;;;;;2.45;2.25;;;;;;;18.02;nan;98559.22;5076970;28;20051;-70
2022/07/20 07:47:47;;;;;;;4.28;2.50;;;;;;;18.64;nan;98544.56;5085671;28;20083;-70
2022/07/20 07:50:12;;;;;;;3.28;2.08;;;;;;;19.96;nan;98548.72;5088980;28;20043;-71
2022/07/20 07:52:37;;;;;;;3.88;2.08;;;;;;;20.67;nan;98550.25;5090608;28;20036;-73
2022/07/20 07:55:02;;;;;;;4.82;3.60;;;;;;;20.85;nan;98553.25;5080829;28;20039;-72
2022/07/20 07:57:28;;;;;;;3.28;1.88;;;;;;;20.69;nan;98550.03;5076941;28;20043;-72
2022/07/20 07:59:53;;;;;;;3.08;2.03;;;;;;;20.37;nan;98544.25;5080623;28;20039;-72
2022/07/20 08:02:17;;;;;;;5.90;4.28;;;;;;;20.05;nan;98539.41;5078100;28;20043;-72
2022/07/20 08:04:42;;;;;;;10.60;5.80;;;;;;;20.02;nan;98539.81;5057717;28;20050;-71
2022/07/20 08:07:07;;;;;;;8.70;5.68;;;;;;;20.36;nan;98539.88;5076057;28;20039;-71
2022/07/20 08:09:32;;;;;;;5.30;3.10;;;;;;;21.39;nan;98528.03;5041147;28;20043;-70
2022/07/20 08:11:57;;;;;;;3.15;2.60;;;;;;;22.78;nan;98524.22;5075348;28;20043;-71
2022/07/20 08:14:22;;;;;;;3.08;2.22;;;;;;;24.52;nan;98520.91;5078620;28;20043;-70
2022/07/20 08:16:47;;;;;;;1.88;1.77;;;;;;;26.35;nan;98521.25;5078954;28;20042;-71
2022/07/20 08:19:12;;;;;;;3.92;2.80;;;;;;;27.35;nan;98521.75;5078753;28;20489;-71
2022/07/20 08:21:36;;;;;;;3.13;2.65;;;;;;;28.29;nan;98523.97;5078442;28;20060;-70
2022/07/20 08:24:05;;;;;;;1.95;1.85;;;;;;;29.35;nan;98530.03;5060489;28;20130;-70
2022/07/20 08:26:30;;;;;;;2.25;2.08;;;;;;;29.60;nan;98530.34;5078509;28;20035;-70
2022/07/20 08:28:55;;;;;;;3.88;3.47;;;;;;;29.75;nan;98525.00;5078692;28;20691;-71
2022/07/20 08:31:19;;;;;;;3.15;2.88;;;;;;;29.91;nan;98524.03;5059915;28;20112;-71
2022/07/20 08:33:44;;;;;;;2.88;2.63;;;;;;;29.10;nan;98523.19;5078615;28;20089;-71
2022/07/20 08:36:09;;;;;;;2.78;2.58;;;;;;;27.85;nan;98514.75;5060250;28;20092;-71
2022/07/20 08:38:33;;;;;;;2.30;2.17;;;;;;;26.68;nan;98523.34;5060191;28;20048;-68
2022/07/20 08:40:58;;;;;;;6.85;4.03;;;;;;;25.79;nan;98514.41;5060226;28;20039;-68
2022/07/20 08:43:24;;;;;;;4.60;3.72;;;;;;;25.20;nan;98528.91;5078300;28;20132;-68
2022/07/20 08:45:50;;;;;;;4.68;3.53;;;;;;;24.79;nan;98529.63;5059920;28;20408;-69
2022/07/20 08:48:18;;;;;;;3.95;2.00;;;;;;;24.80;nan;98525.81;5059916;28;20050;-69
2022/07/20 08:50:43;;;;;;;3.25;2.95;;;;;;;25.80;nan;98523.44;5078312;28;20409;-71
2022/07/20 08:53:08;;;;;;;4.97;2.50;;;;;;;26.71;nan;98520.16;5077905;28;20055;-71
2022/07/20 08:55:33;;;;;;;7.25;3.70;;;;;;;26.85;nan;98510.63;5077955;28;20044;-71
2022/07/20 08:57:58;;;;;;;7.35;5.63;;;;;;;27.02;nan;98519.75;5059778;28;20524;-70
2022/07/20 09:00:23;;;;;;;4.13;2.75;;;;;;;28.67;nan;98514.94;5059587;28;20027;-69
2022/07/20 09:03:08;;;;;;;2.20;2.10;;;;;;;31.68;nan;98523.41;5042974;28;20043;-69
2022/07/20 09:05:38;;;;;;;3.30;3.00;;;;;;;33.45;nan;98578.38;5059955;28;20039;-70
2022/07/20 09:08:05;;;;;;;3.45;2.92;;;;;;;34.14;nan;98527.59;5077951;28;20086;-69
2022/07/20 09:10:36;;;;;;;3.45;2.65;;;;;;;35.45;nan;98588.28;5079750;28;20046;-69
2022/07/20 09:13:06;;;;;;;4.60;2.78;;;;;;;34.82;nan;98596.78;5080298;28;20047;-69
2022/07/20 09:15:40;;;;;;;2.95;2.75;;;;;;;33.24;nan;98598.91;5079869;28;20565;-69
2022/07/20 09:18:12;;;;;;;4.80;2.60;;;;;;;31.44;nan;98525.81;5082502;28;20043;-70
2022/07/20 09:20:39;;;;;;;3.08;2.55;;;;;;;29.30;nan;98533.56;5082340;28;20043;-63
2022/07/20 09:23:08;;;;;;;2.50;2.30;;;;;;;27.76;nan;98528.84;5059516;28;20497;-63
2022/07/20 09:25:34;;;;;;;2.60;2.10;;;;;;;26.49;nan;98527.31;5058376;28;20061;-63
2022/07/20 09:27:58;;;;;;;1.85;1.75;;;;;;;25.51;nan;98522.38;5058808;28;20088;-63
2022/07/20 09:30:24;;;;;;;4.13;2.45;;;;;;;24.67;nan;98513.19;5077113;28;20127;-63
2022/07/20 09:32:51;;;;;;;3.90;2.47;;;;;;;24.05;nan;98523.19;5058872;28;20482;-63
2022/07/20 09:35:16;;;;;;;3.30;1.90;;;;;;;23.42;nan;98512.38;5077260;28;20040;-64
2022/07/20 09:37:41;;;;;;;1.83;1.73;;;;;;;23.00;nan;98515.75;5041720;28;20050;-63
2022/07/20 09:40:07;;;;;;;2.65;2.40;;;;;;;22.68;nan;98503.94;5076945;28;20031;-62
2022/07/20 09:42:40;;;;;;;2.55;2.28;;;;;;;22.58;nan;98498.94;5058457;28;20142;-62
2022/07/20 09:45:19;;;;;;;4.05;2.78;;;;;;;22.60;nan;98496.84;5077296;28;20035;-63
2022/07/20 09:48:02;;;;;;;9.15;4.28;;;;;;;22.73;nan;98493.25;5076616;28;20444;-62
2022/07/20 09:50:30;;;;;;;5.47;3.03;;;;;;;22.83;nan;98492.81;5076898;28;20154;-63
2022/07/20 09:52:56;;;;;;;4.00;2.97;;;;;;;23.12;nan;98481.41;5077150;28;20039;-63
2022/07/20 09:55:21;;;;;;;2.75;2.42;;;;;;;23.33;nan;98477.50;5076841;28;20043;-64
2022/07/20 09:57:46;;;;;;;3.15;2.10;;;;;;;23.59;nan;98479.22;5076469;28;20043;-63
2022/07/20 10:00:12;;;;;;;2.05;1.85;;;;;;;24.45;nan;98477.38;5058205;28;20513;-63
2022/07/20 10:02:37;;;;;;;3.38;2.72;;;;;;;25.06;nan;98475.59;5058327;28;20045;-70
2022/07/20 10:05:02;;;;;;;1.95;1.85;;;;;;;25.17;nan;98472.09;5076838;28;20085;-71
2022/07/20 10:07:29;;;;;;;4.05;2.00;;;;;;;25.02;nan;98472.50;5058455;28;20419;-70
2022/07/20 10:09:55;;;;;;;1.90;1.50;;;;;;;25.50;nan;98466.97;5058435;28;20050;-72
2022/07/20 10:12:20;;;;;;;1.90;1.80;;;;;;;26.89;nan;98473.47;5076930;28;20522;-70
2022/07/20 10:14:49;;;;;;;1.90;1.80;;;;;;;29.85;nan;98464.66;5076807;28;20141;-70
2022/07/20 10:17:14;;;;;;;2.70;2.25;;;;;;;33.52;nan;98462.00;5058052;28;20391;-71
2022/07/20 10:19:47;;;;;;;4.20;2.97;;;;;;;36.36;nan;98519.53;5076608;28;20515;-70
2022/07/20 10:22:13;;;;;;;3.53;2.78;;;;;;;38.67;nan;98458.13;5076451;28;20051;-70
2022/07/20 10:24:39;;;;;;;3.13;2.83;;;;;;;40.88;nan;98469.06;5076300;28;20059;-69
2022/07/20 10:27:19;;;;;;;3.88;3.47;;;;;;;42.65;nan;98467.44;5058129;28;20505;-71
2022/07/20 10:29:47;;;;;;;4.85;4.25;;;;;;;44.27;nan;98463.59;5076239;28;20398;-62
2022/07/20 10:32:23;;;;;;;5.07;4.78;;;;;;;45.38;nan;98462.38;5076299;28;20082;-64
2022/07/20 10:34:51;;;;;;;7.10;5.72;;;;;;;45.47;nan;98451.75;5076073;28;20047;-64
2022/07/20 10:37:27;;;;;;;5.57;5.20;;;;;;;43.35;nan;98451.28;5057941;28;20067;-64
2022/07/20 10:39:58;;;;;;;5.00;4.70;;;;;;;40.24;nan;98442.00;5057825;28;20080;-63
2022/07/20 10:42:37;;;;;;;4.75;4.35;;;;;;;37.33;nan;98433.13;5057448;28;20051;-62
2022/07/20 10:45:15;;;;;;;3.50;3.17;;;;;;;34.40;nan;98412.00;5076198;28;20084;-72
2022/07/20 10:47:51;;;;;;;2.60;2.50;;;;;;;32.14;nan;98419.47;5076501;28;20457;-71
2022/07/20 10:50:36;;;;;;;2.50;2.30;;;;;;;30.44;nan;98412.28;5067917;28;20036;-71
2022/07/20 10:53:13;;;;;;;2.78;2.20;;;;;;;28.80;nan;98424.03;5085996;28;20100;-71
2022/07/20 10:55:37;;;;;;;1.98;1.88;;;;;;;27.31;nan;98404.81;5047717;28;20043;-70
2022/07/20 10:58:07;;;;;;;2.90;2.45;;;;;;;26.39;nan;98408.50;5082968;28;20051;-74
2022/07/20 11:00:36;;;;;;;4.68;2.60;;;;;;;25.59;nan;98400.06;5060295;28;20031;-71
2022/07/20 11:03:03;;;;;;;3.70;1.70;;;;;;;24.94;nan;98402.75;5042413;28;20082;-71
2022/07/20 11:05:27;;;;;;;2.30;2.10;;;;;;;24.44;nan;98401.31;5058560;28;20088;-71
2022/07/20 11:07:52;;;;;;;2.10;1.90;;;;;;;24.02;nan;98405.78;5075606;28;20043;-72
2022/07/20 11:10:24;;;;;;;3.13;1.45;;;;;;;23.74;nan;98411.69;5040821;28;20437;-72
2022/07/20 11:13:03;;;;;;;2.03;1.45;;;;;;;23.45;nan;98414.00;5075551;28;20051;-73
2022/07/20 11:15:54;;;;;;;1.35;1.13;;;;;;;23.15;nan;98415.69;5075752;28;20049;-72
2022/07/20 11:18:25;;;;;;;1.95;1.77;;;;;;;22.82;nan;98418.63;5075670;28;20104;-70
2022/07/20 11:20:54;;;;;;;4.68;2.90;;;;;;;22.59;nan;98402.81;5075146;28;20375;-71
2022/07/20 11:23:22;;;;;;;4.47;2.70;;;;;;;22.44;nan;98408.56;5075016;28;20154;-70
2022/07/20 11:25:56;;;;;;;1.55;1.45;;;;;;;22.33;nan;98411.09;5056947;28;20042;-70
2022/07/20 11:28:50;;;;;;;4.90;1.80;;;;;;;22.34;nan;98408.19;5056842;28;20403;-69
2022/07/20 11:31:17;;;;;;;2.65;1.77;;;;;;;22.09;nan;98413.47;5056858;28;20829;-70
2022/07/20 11:33:44;;;;;;;2.55;1.85;;;;;;;21.98;nan;98405.97;5057369;28;20126;-70
2022/07/20 11:36:12;;;;;;;3.22;2.42;;;;;;;21.94;nan;98412.84;5075602;28;20142;-69
2022/07/20 11:38:42;;;;;;;2.95;1.60;;;;;;;21.93;nan;98405.75;5057043;28;20483;-71
2022/07/20 11:41:12;;;;;;;1.42;1.30;;;;;;;21.92;nan;98404.06;5075248;28;20492;-71
2022/07/20 11:43:37;;;;;;;3.92;1.70;;;;;;;21.83;nan;98408.06;5075171;28;20130;-71
2022/07/20 11:46:15;;;;;;;2.25;1.80;;;;;;;21.90;nan;98410.75;5076128;28;20122;-70
2022/07/20 11:48:42;;;;;;;1.60;1.50;;;;;;;21.80;nan;98413.91;5074821;28;20043;-70